createdAt,value
2019-03-27T00:03:20.920Z,5.90
2019-03-27T00:08:24.818Z,5.80
2019-03-27T00:13:28.697Z,5.70
2019-03-27T00:18:32.574Z,5.90
2019-03-27T00:23:36.812Z,5.70
2019-03-27T00:28:40.714Z,5.70
2019-03-27T00:33:44.585Z,5.60
2019-03-27T00:38:48.463Z,5.70
2019-03-27T00:43:52.338Z,5.70
2019-03-27T00:48:56.205Z,5.80
2019-03-27T00:54:00.122Z,5.80
2019-03-27T00:59:04.059Z,5.70
2019-03-27T01:04:07.991Z,5.60
2019-03-27T01:09:12.871Z,5.40
2019-03-27T01:14:16.765Z,5.30
2019-03-27T01:19:21.830Z,5.20
2019-03-27T01:24:25.734Z,5.10
2019-03-27T01:29:29.599Z,5.10
2019-03-27T01:34:33.466Z,5.00
2019-03-27T01:39:37.347Z,5.00
2019-03-27T01:44:41.218Z,4.80
2019-03-27T01:49:45.124Z,4.80
2019-03-27T01:54:48.994Z,4.80
2019-03-27T01:59:52.863Z,4.90
2019-03-27T02:04:56.746Z,4.90
2019-03-27T02:10:00.543Z,4.80
2019-03-27T02:15:09.007Z,4.80
2019-03-27T02:20:12.965Z,4.70
2019-03-27T02:25:16.871Z,4.70
2019-03-27T02:30:20.768Z,4.80
2019-03-27T02:35:24.683Z,4.90
2019-03-27T02:40:28.515Z,4.80
2019-03-27T02:45:32.441Z,4.80
2019-03-27T02:50:36.345Z,4.70
2019-03-27T02:55:40.173Z,4.50
2019-03-27T03:00:44.129Z,4.50
2019-03-27T03:05:47.901Z,4.30
2019-03-27T03:10:51.788Z,4.10
2019-03-27T03:15:55.631Z,4.10
2019-03-27T03:20:59.545Z,4.10
2019-03-27T03:26:03.452Z,4.10
2019-03-27T03:31:07.320Z,4.00
2019-03-27T03:36:11.171Z,4.10
2019-03-27T03:41:15.032Z,4.10
2019-03-27T03:46:18.944Z,4.10
2019-03-27T03:51:22.773Z,4.10
2019-03-27T03:56:28.585Z,4.00
2019-03-27T04:01:35.639Z,4.00
2019-03-27T04:06:39.475Z,4.00
2019-03-27T04:11:43.369Z,4.00
2019-03-27T04:16:47.249Z,3.80
2019-03-27T04:21:51.150Z,3.70
2019-03-27T04:26:54.992Z,3.70
2019-03-27T04:31:58.847Z,3.70
2019-03-27T04:37:02.752Z,3.70
2019-03-27T04:42:06.589Z,3.70
2019-03-27T04:47:10.495Z,3.60
2019-03-27T04:52:14.341Z,3.50
2019-03-27T04:57:18.169Z,3.60
2019-03-27T05:02:21.999Z,3.60
2019-03-27T05:07:25.916Z,3.60
2019-03-27T05:12:29.811Z,3.60
2019-03-27T05:17:45.307Z,3.60
2019-03-27T05:22:39.185Z,3.60
2019-03-27T05:27:42.985Z,3.80
2019-03-27T05:32:46.843Z,3.90
2019-03-27T05:37:50.751Z,3.90
2019-03-27T05:43:00.681Z,3.90
2019-03-27T05:48:00.303Z,3.90
2019-03-27T05:53:04.152Z,4.00
2019-03-27T05:58:07.934Z,4.10
2019-03-27T06:03:11.798Z,4.20
2019-03-27T06:08:15.678Z,4.10
2019-03-27T06:13:19.551Z,4.20
2019-03-27T06:18:23.996Z,4.30
2019-03-27T06:23:27.876Z,4.40
2019-03-27T06:28:31.775Z,4.50
2019-03-27T06:33:35.659Z,4.60
2019-03-27T06:38:39.580Z,4.60
2019-03-27T06:43:43.485Z,4.70
2019-03-27T06:48:47.321Z,4.80
2019-03-27T06:53:51.226Z,4.90
2019-03-27T06:58:55.277Z,5.10
2019-03-27T07:04:09.999Z,5.30
2019-03-27T07:09:07.523Z,5.60
2019-03-27T07:14:11.494Z,6.00
2019-03-27T07:19:15.355Z,6.50
2019-03-27T07:24:19.446Z,7.50
2019-03-27T07:29:23.273Z,8.70
2019-03-27T07:34:27.167Z,9.80
2019-03-27T07:39:31.012Z,10.80
2019-03-27T07:44:34.907Z,11.80
2019-03-27T07:49:38.778Z,12.40
2019-03-27T07:54:42.646Z,13.10
2019-03-27T07:59:46.520Z,13.60
2019-03-27T08:04:50.389Z,13.90
2019-03-27T08:09:54.278Z,14.20
2019-03-27T08:15:00.014Z,14.60
2019-03-27T08:20:07.793Z,14.80
2019-03-27T08:25:11.900Z,15.10
2019-03-27T08:30:16.300Z,15.50
2019-03-27T08:35:20.298Z,15.70
2019-03-27T08:40:24.693Z,15.70
2019-03-27T08:45:28.624Z,16.30
2019-03-27T08:50:32.515Z,16.40
2019-03-27T08:55:36.423Z,16.80
2019-03-27T09:00:50.947Z,17.00
2019-03-27T09:05:54.780Z,17.20
2019-03-27T09:10:58.603Z,17.70
2019-03-27T09:16:02.445Z,17.80
2019-03-27T09:21:06.350Z,18.60
2019-03-27T09:26:10.261Z,18.70
2019-03-27T09:31:14.171Z,18.90
2019-03-27T09:36:18.002Z,18.70
2019-03-27T09:41:21.906Z,19.40
2019-03-27T09:46:25.914Z,19.50
2019-03-27T09:51:29.820Z,19.10
2019-03-27T09:56:33.658Z,19.90
2019-03-27T10:01:37.561Z,19.90
2019-03-27T10:06:41.459Z,19.80
2019-03-27T10:11:45.427Z,20.10
2019-03-27T10:16:49.297Z,18.70
2019-03-27T10:21:53.168Z,19.20
2019-03-27T10:26:57.752Z,18.60
2019-03-27T10:32:01.614Z,18.60
2019-03-27T10:37:05.493Z,19.00
2019-03-27T10:42:09.351Z,18.40
2019-03-27T10:47:13.315Z,17.30
2019-03-27T10:52:17.099Z,16.70
2019-03-27T10:57:20.969Z,17.40
2019-03-27T11:02:24.804Z,17.90
2019-03-27T11:07:28.669Z,18.70
2019-03-27T11:12:32.547Z,17.40
2019-03-27T11:17:36.404Z,17.30
2019-03-27T11:22:40.267Z,18.10
2019-03-27T11:27:44.139Z,18.60
2019-03-27T11:32:48.004Z,18.30
2019-03-27T11:37:51.802Z,18.50
2019-03-27T11:42:55.672Z,18.80
2019-03-27T11:47:59.470Z,18.90
2019-03-27T11:53:03.345Z,18.80
2019-03-27T11:58:07.132Z,19.00
2019-03-27T12:03:11.037Z,18.80
2019-03-27T12:08:14.965Z,18.90
2019-03-27T12:13:18.779Z,18.50
2019-03-27T12:18:22.645Z,17.80
2019-03-27T12:23:26.542Z,17.40
2019-03-27T12:28:32.233Z,17.20
2019-03-27T12:33:37.194Z,16.80
2019-03-27T12:38:41.074Z,16.50
2019-03-27T12:43:45.012Z,15.90
2019-03-27T12:48:48.940Z,15.10
2019-03-27T12:53:52.868Z,14.50
2019-03-27T12:58:56.704Z,14.50
2019-03-27T13:04:00.572Z,14.10
2019-03-27T13:09:06.584Z,14.20
2019-03-27T13:14:10.446Z,14.00
2019-03-27T13:19:14.300Z,13.90
2019-03-27T13:24:18.155Z,13.70
2019-03-27T13:29:22.021Z,13.60
2019-03-27T13:34:25.819Z,13.60
2019-03-27T13:39:29.698Z,13.20
2019-03-27T13:44:37.427Z,12.80
2019-03-27T13:49:39.083Z,12.60
2019-03-27T13:54:43.025Z,12.50
2019-03-27T13:59:46.911Z,12.30
2019-03-27T14:04:52.539Z,12.20
2019-03-27T14:09:57.663Z,12.00
2019-03-27T14:15:01.566Z,11.90
2019-03-27T14:20:07.437Z,11.80
2019-03-27T14:25:11.925Z,11.80
2019-03-27T14:30:38.184Z,11.70
2019-03-27T14:35:42.072Z,11.60
2019-03-27T14:40:46.778Z,11.50
2019-03-27T14:45:51.971Z,11.50
2019-03-27T14:50:57.644Z,11.40
2019-03-27T14:56:09.493Z,11.40
2019-03-27T15:01:14.695Z,11.40
2019-03-27T15:06:19.269Z,11.40
2019-03-27T15:11:23.338Z,11.50
2019-03-27T15:16:27.532Z,11.60
2019-03-27T15:21:31.483Z,11.50
2019-03-27T15:26:35.487Z,11.50
2019-03-27T15:31:39.425Z,11.40
2019-03-27T15:36:43.365Z,11.40
2019-03-27T15:41:47.919Z,11.30
2019-03-27T15:46:51.875Z,11.30
2019-03-27T15:51:55.773Z,11.20
2019-03-27T15:56:59.774Z,11.20
2019-03-27T16:02:04.490Z,11.20
2019-03-27T16:07:08.353Z,11.10
2019-03-27T16:12:12.402Z,11.10
2019-03-27T16:17:16.479Z,10.90
2019-03-27T16:22:20.564Z,10.80
2019-03-27T16:27:24.517Z,10.70
2019-03-27T16:32:28.415Z,10.60
2019-03-27T16:37:32.331Z,10.60
2019-03-27T16:42:36.544Z,10.50
2019-03-27T16:47:40.750Z,10.40
2019-03-27T16:52:45.090Z,10.40
2019-03-27T16:57:51.423Z,10.40
2019-03-27T17:02:55.691Z,10.40
2019-03-27T17:07:59.671Z,10.40
2019-03-27T17:13:06.249Z,10.20
2019-03-27T17:18:10.350Z,10.30
2019-03-27T17:23:18.288Z,10.20
2019-03-27T17:28:20.230Z,10.10
2019-03-27T17:33:24.962Z,10.00
2019-03-27T17:38:29.264Z,10.00
2019-03-27T17:43:33.620Z,10.00
2019-03-27T17:48:37.666Z,9.90
2019-03-27T17:53:41.423Z,9.80
2019-03-27T17:58:45.559Z,9.80
2019-03-27T18:03:51.400Z,9.80
2019-03-27T18:08:55.495Z,9.80
2019-03-27T18:13:59.553Z,9.70
2019-03-27T18:19:07.145Z,9.70
2019-03-27T18:24:10.633Z,9.70
2019-03-27T18:29:14.539Z,9.70
2019-03-27T18:34:19.116Z,9.70
2019-03-27T18:39:23.141Z,9.80
2019-03-27T18:44:27.020Z,9.80
2019-03-27T18:49:32.309Z,9.70
2019-03-27T18:54:36.158Z,9.70
2019-03-27T18:59:39.970Z,9.70
2019-03-27T19:04:43.867Z,9.60
2019-03-27T19:09:47.652Z,9.70
2019-03-27T19:14:52.232Z,9.70
2019-03-27T19:19:56.316Z,9.60
2019-03-27T19:25:02.864Z,9.60
2019-03-27T19:30:08.531Z,9.50
2019-03-27T19:35:12.621Z,9.50
2019-03-27T19:40:16.733Z,9.50
2019-03-27T19:45:20.889Z,9.40
2019-03-27T19:50:24.811Z,9.40
2019-03-27T19:55:28.827Z,9.40
2019-03-27T20:00:32.973Z,9.40
2019-03-27T20:05:37.341Z,9.50
2019-03-27T20:10:41.343Z,9.50
2019-03-27T20:15:45.263Z,9.50
2019-03-27T20:20:49.192Z,9.50
2019-03-27T20:25:53.221Z,9.60
2019-03-27T20:30:57.148Z,9.50
2019-03-27T20:36:02.988Z,9.60
2019-03-27T20:41:06.620Z,9.50
2019-03-27T20:46:24.054Z,9.60
2019-03-27T20:51:16.473Z,9.50
2019-03-27T20:56:20.335Z,9.50
2019-03-27T21:01:24.256Z,9.50
2019-03-27T21:06:28.179Z,9.50
2019-03-27T21:11:32.049Z,9.40
2019-03-27T21:16:35.903Z,9.40
2019-03-27T21:21:41.938Z,9.40
2019-03-27T21:26:45.319Z,9.40
2019-03-27T21:31:49.197Z,9.40
2019-03-27T21:36:53.075Z,9.40
2019-03-27T21:41:56.968Z,9.40
2019-03-27T21:47:00.870Z,9.40
2019-03-27T21:52:04.846Z,9.30
2019-03-27T21:57:08.714Z,9.30
2019-03-27T22:02:12.588Z,9.30
2019-03-27T22:07:19.264Z,9.20
2019-03-27T22:12:22.004Z,9.20
2019-03-27T22:17:27.482Z,9.20
2019-03-27T22:22:31.382Z,9.30
2019-03-27T22:27:35.269Z,9.30
2019-03-27T22:32:39.134Z,9.30
2019-03-27T22:37:43.131Z,9.30
2019-03-27T22:42:47.047Z,9.20
2019-03-27T22:47:50.939Z,9.30
2019-03-27T22:52:54.820Z,9.20
2019-03-27T22:57:58.699Z,9.10
2019-03-27T23:03:02.559Z,9.10
2019-03-27T23:08:06.358Z,9.20
2019-03-27T23:13:10.219Z,9.20
2019-03-27T23:18:14.091Z,9.20
2019-03-27T23:23:17.940Z,9.10
2019-03-27T23:28:21.838Z,9.20
2019-03-27T23:33:28.327Z,9.20
2019-03-27T23:38:32.326Z,9.30
2019-03-27T23:43:36.396Z,9.30
2019-03-27T23:48:41.979Z,9.30
2019-03-27T23:53:45.963Z,9.30
2019-03-27T23:58:49.986Z,9.30
